createdAt,value
2018-12-13T00:06:01.118Z,48.20
2018-12-13T00:19:23.983Z,48.40
2018-12-13T00:32:46.783Z,48.50
2018-12-13T00:46:09.644Z,48.50
2018-12-13T01:13:07.388Z,48.90
2018-12-13T01:26:14.489Z,49.00
2018-12-13T01:39:21.592Z,49.10
2018-12-13T01:52:28.692Z,49.10
2018-12-13T02:18:38.904Z,49.40
2018-12-13T02:44:51.779Z,49.50
2018-12-13T02:57:58.914Z,49.70
2018-12-13T03:11:06.042Z,49.70
2018-12-13T03:24:13.310Z,49.70
2018-12-13T03:37:20.888Z,49.80
2018-12-13T03:50:27.756Z,49.80
2018-12-13T04:03:51.531Z,49.90
2018-12-13T04:17:14.495Z,50.00
2018-12-13T04:30:37.152Z,50.70
2018-12-13T04:43:59.973Z,50.10
2018-12-13T04:57:22.808Z,50.10
2018-12-13T05:10:45.581Z,50.20
2018-12-13T05:37:10.071Z,50.20
2018-12-13T05:50:17.222Z,50.30
2018-12-13T06:03:24.351Z,50.40
2018-12-13T06:16:31.478Z,50.40
2018-12-13T06:29:41.662Z,50.10
2018-12-13T06:42:46.160Z,50.10
2018-12-13T06:56:09.945Z,50.20
2018-12-13T07:22:34.325Z,50.40
2018-12-13T07:35:41.455Z,47.20
2018-12-13T07:48:48.812Z,40.60
2018-12-13T08:01:55.960Z,42.00
2018-12-13T08:15:03.261Z,44.20
2018-12-13T08:28:10.558Z,44.60
2018-12-13T08:41:34.068Z,44.80
2018-12-13T08:54:56.878Z,45.40
2018-12-13T09:08:19.688Z,45.70
2018-12-13T09:21:42.497Z,48.00
2018-12-13T09:35:05.346Z,46.80
2018-12-13T09:48:28.290Z,47.40
2018-12-13T10:01:50.984Z,47.70
2018-12-13T10:15:13.764Z,48.10
2018-12-13T10:28:36.613Z,48.40
2018-12-13T10:41:59.391Z,48.70
2018-12-13T10:55:22.203Z,48.90
2018-12-13T11:08:45.090Z,49.00
2018-12-13T11:22:07.895Z,49.10
2018-12-13T11:35:30.684Z,49.00
2018-12-13T11:48:53.475Z,49.10
2018-12-13T12:02:16.454Z,49.10
2018-12-13T12:15:39.095Z,49.10
2018-12-13T12:29:02.060Z,48.90
2018-12-13T12:42:24.883Z,49.20
2018-12-13T12:55:47.732Z,49.30
2018-12-13T13:09:10.386Z,49.20
2018-12-13T13:22:33.235Z,49.40
2018-12-13T13:35:56.012Z,49.40
2018-12-13T13:49:18.843Z,49.20
2018-12-13T14:02:41.620Z,49.30
2018-12-13T14:16:04.461Z,49.30
2018-12-13T14:29:27.412Z,49.50
2018-12-13T14:42:50.099Z,49.40
2018-12-13T14:56:12.994Z,49.50
2018-12-13T15:09:35.854Z,49.40
2018-12-13T15:22:58.581Z,49.50
2018-12-13T15:36:21.333Z,49.60
2018-12-13T16:02:45.832Z,49.60
2018-12-13T16:15:53.183Z,49.50
2018-12-13T16:29:00.503Z,49.50
2018-12-13T16:55:11.752Z,49.50
2018-12-13T17:08:19.026Z,49.30
2018-12-13T17:21:26.349Z,49.10
2018-12-13T17:34:33.668Z,48.80
2018-12-13T17:47:40.830Z,48.60
2018-12-13T18:01:04.905Z,48.70
2018-12-13T18:14:27.709Z,48.30
2018-12-13T18:27:50.513Z,47.60
2018-12-13T18:41:13.337Z,47.20
2018-12-13T18:54:36.156Z,47.40
2018-12-13T19:07:58.987Z,46.60
2018-12-13T19:21:21.772Z,46.10
2018-12-13T19:34:44.751Z,46.40
2018-12-13T19:48:07.429Z,47.20
2018-12-13T20:01:30.393Z,47.60
2018-12-13T20:14:53.064Z,47.70
2018-12-13T20:28:15.900Z,47.90
2018-12-13T20:41:38.804Z,48.10
2018-12-13T21:08:03.365Z,48.20
2018-12-13T21:21:10.541Z,48.20
2018-12-13T21:34:17.847Z,48.30
2018-12-13T21:47:25.211Z,48.30
2018-12-13T22:00:32.444Z,43.50
2018-12-13T22:26:58.150Z,45.80
2018-12-13T22:40:05.756Z,46.30
2018-12-13T22:53:13.526Z,46.60
2018-12-13T23:06:20.724Z,47.00
2018-12-13T23:19:45.139Z,47.30
2018-12-13T23:33:07.839Z,47.50
2018-12-13T23:46:30.652Z,47.80
2018-12-13T23:59:53.605Z,47.90
